Time;durP1;ratioP1;P1;durP2;ratioP2;P2;SDS_P1;SDS_P2;PMS_P1;PMS_P2;Temp;Humidity;BMP_temperature;BMP_pressure;BME280_temperature;BME280_humidity;BME280_pressure;Samples;Min_cycle;Max_cycle;Signal;HPM_P1;HPM_P2
2022/03/08 00:03:47;;;;;;;13.52;10.30;;;;;;;1.15;79.65;102371.84;10420102;28;20102;-71
2022/03/08 00:08:47;;;;;;;22.52;11.35;;;;;;;1.02;79.82;102374.47;10418492;28;20030;-71
2022/03/08 00:13:50;;;;;;;15.23;10.25;;;;;;;0.92;79.80;102360.00;10418280;28;20041;-71
2022/03/08 00:18:51;;;;;;;10.23;9.15;;;;;;;0.85;80.05;102366.69;10400592;28;20033;-70
2022/03/08 00:23:51;;;;;;;15.00;11.00;;;;;;;0.81;79.65;102362.50;10419010;28;20030;-71
2022/03/08 00:28:51;;;;;;;16.17;9.13;;;;;;;0.82;79.67;102353.53;10399296;28;20539;-70
2022/03/08 00:33:52;;;;;;;9.18;7.85;;;;;;;0.74;80.10;102353.19;10417399;28;20469;-71
2022/03/08 00:38:52;;;;;;;13.60;10.07;;;;;;;0.76;78.76;102349.44;10416352;28;20079;-71
2022/03/08 00:43:52;;;;;;;11.25;9.30;;;;;;;0.69;79.11;102330.31;10401018;28;20381;-72
2022/03/08 00:48:53;;;;;;;15.18;8.00;;;;;;;0.73;78.94;102343.47;10417938;28;20033;-71
2022/03/08 00:53:53;;;;;;;13.05;8.10;;;;;;;0.69;78.43;102337.47;10416579;28;20041;-71
2022/03/08 00:58:54;;;;;;;7.43;6.70;;;;;;;0.66;78.57;102343.00;10417187;28;20037;-71
2022/03/08 01:03:54;;;;;;;17.80;9.80;;;;;;;0.70;77.92;102333.84;10420165;28;20528;-71
2022/03/08 01:08:54;;;;;;;11.43;8.82;;;;;;;0.66;77.97;102337.66;10416067;28;20041;-72
2022/03/08 01:13:55;;;;;;;12.77;9.02;;;;;;;0.68;76.71;102328.63;10415853;28;20036;-72
2022/03/08 01:18:55;;;;;;;10.13;8.25;;;;;;;0.45;78.73;102337.22;10417324;28;20029;-71
2022/03/08 01:23:56;;;;;;;12.52;8.45;;;;;;;0.34;79.54;102329.03;10415592;28;20033;-71
2022/03/08 01:28:56;;;;;;;9.27;7.43;;;;;;;0.38;79.40;102333.22;10414902;28;20535;-72
2022/03/08 01:33:57;;;;;;;9.93;8.10;;;;;;;0.38;79.07;102328.78;10397740;28;20037;-71
2022/03/08 01:38:57;;;;;;;13.80;7.28;;;;;;;0.40;78.84;102320.66;10414743;28;20029;-71
2022/03/08 01:43:57;;;;;;;9.68;6.22;;;;;;;0.44;77.97;102316.84;10415753;28;20046;-71
2022/03/08 01:48:58;;;;;;;9.40;6.82;;;;;;;0.53;77.16;102302.94;10415647;28;20034;-71
2022/03/08 01:53:58;;;;;;;12.82;6.43;;;;;;;0.48;77.11;102313.06;10404966;28;20115;-72
2022/03/08 01:58:59;;;;;;;11.52;8.80;;;;;;;0.53;76.43;102299.41;10423358;28;20350;-71
2022/03/08 02:04:00;;;;;;;7.72;5.32;;;;;;;0.51;76.56;102296.88;10462234;28;20497;-71
2022/03/08 02:09:00;;;;;;;7.78;6.13;;;;;;;0.42;76.55;102297.44;10463787;28;20037;-71
2022/03/08 02:14:02;;;;;;;8.55;7.75;;;;;;;0.42;75.72;102282.31;10445890;28;20090;-71
2022/03/08 02:19:03;;;;;;;16.90;8.90;;;;;;;0.25;76.47;102274.50;10463380;28;20037;-71
2022/03/08 02:24:03;;;;;;;15.43;7.68;;;;;;;0.30;75.63;102261.78;10446004;28;20029;-71
2022/03/08 02:29:05;;;;;;;9.75;8.18;;;;;;;0.26;75.42;102254.09;10463034;28;20037;-71
2022/03/08 02:34:05;;;;;;;7.18;6.00;;;;;;;0.19;75.68;102262.47;10463271;28;20025;-72
2022/03/08 02:39:06;;;;;;;6.65;6.00;;;;;;;0.30;74.09;102250.25;10463701;28;20025;-71
2022/03/08 02:44:06;;;;;;;11.13;7.72;;;;;;;0.38;73.04;102261.28;10462843;28;20045;-71
2022/03/08 02:49:07;;;;;;;8.60;7.25;;;;;;;0.37;72.76;102254.25;10462959;28;20029;-72
2022/03/08 02:54:07;;;;;;;8.73;7.55;;;;;;;0.30;72.52;102239.59;10463353;28;20045;-71
2022/03/08 02:59:07;;;;;;;6.68;5.78;;;;;;;0.31;72.27;102238.66;10444782;28;20040;-71
2022/03/08 03:04:08;;;;;;;8.27;6.65;;;;;;;0.30;72.35;102251.13;10462617;28;20392;-72
2022/03/08 03:09:08;;;;;;;8.15;7.40;;;;;;;0.26;72.39;102232.78;10445030;28;20126;-72
2022/03/08 03:14:09;;;;;;;8.95;7.72;;;;;;;0.21;71.95;102219.72;10443654;28;20033;-72
2022/03/08 03:19:09;;;;;;;5.80;4.68;;;;;;;0.11;72.54;102229.25;10461585;28;20040;-72
2022/03/08 03:24:10;;;;;;;9.77;6.97;;;;;;;0.02;72.53;102208.53;10462658;28;20048;-71
2022/03/08 03:29:10;;;;;;;8.00;6.53;;;;;;;0.08;72.47;102205.47;10460796;28;20052;-72
2022/03/08 03:34:10;;;;;;;6.38;5.70;;;;;;;0.09;72.12;102200.03;10461142;28;20033;-72
2022/03/08 03:39:11;;;;;;;11.88;6.38;;;;;;;-0.04;72.21;102193.78;10461667;28;20120;-71
2022/03/08 03:44:11;;;;;;;8.02;5.05;;;;;;;-0.07;72.42;102202.81;10443038;28;20060;-71
2022/03/08 03:49:12;;;;;;;7.63;6.82;;;;;;;0.05;71.58;102200.34;10461152;28;20033;-71
2022/03/08 03:54:12;;;;;;;8.88;6.95;;;;;;;-0.20;73.28;102196.56;10460323;28;20044;-71
2022/03/08 03:59:13;;;;;;;6.78;5.63;;;;;;;-0.22;72.94;102200.25;10442911;28;20036;-71
2022/03/08 04:04:13;;;;;;;11.10;7.25;;;;;;;-0.16;72.71;102202.53;10419501;28;20053;-71
2022/03/08 04:09:14;;;;;;;8.20;6.18;;;;;;;-0.29;72.53;102192.69;10420134;28;20065;-71
2022/03/08 04:14:15;;;;;;;10.32;8.68;;;;;;;-0.32;72.98;102189.34;10417326;28;20048;-71
2022/03/08 04:19:15;;;;;;;9.98;6.47;;;;;;;-0.37;73.01;102186.97;10419059;28;20037;-71
2022/03/08 04:24:16;;;;;;;8.75;7.53;;;;;;;-0.40;73.22;102181.84;10419596;28;20065;-73
2022/03/08 04:29:16;;;;;;;8.15;7.22;;;;;;;-0.33;72.46;102172.50;10429939;28;20033;-71
2022/03/08 04:34:16;;;;;;;8.52;7.25;;;;;;;-0.37;72.53;102173.66;10434335;28;20053;-72
2022/03/08 04:39:17;;;;;;;9.30;7.68;;;;;;;-0.45;73.68;102178.59;10431961;28;20064;-72
2022/03/08 04:44:17;;;;;;;8.95;7.43;;;;;;;-0.47;72.81;102173.38;10433070;28;20049;-71
2022/03/08 04:49:18;;;;;;;7.78;6.47;;;;;;;-0.56;74.67;102165.09;10431162;28;20033;-72
2022/03/08 04:54:18;;;;;;;8.60;7.18;;;;;;;-0.50;74.44;102176.22;10434981;28;20056;-71
2022/03/08 04:59:18;;;;;;;10.73;7.03;;;;;;;-0.38;74.01;102179.06;10434055;28;20037;-71
2022/03/08 05:04:20;;;;;;;11.55;6.45;;;;;;;-0.34;73.50;102169.97;10461621;28;20449;-71
2022/03/08 05:09:21;;;;;;;7.40;5.55;;;;;;;-0.31;72.74;102169.78;10456604;28;20444;-71
2022/03/08 05:14:21;;;;;;;9.23;7.68;;;;;;;-0.34;72.42;102172.63;10457294;28;20048;-70
2022/03/08 05:19:22;;;;;;;10.90;5.63;;;;;;;-0.35;73.02;102169.13;10457365;28;20029;-71
2022/03/08 05:24:22;;;;;;;13.77;8.27;;;;;;;-0.35;72.84;102166.44;10456599;28;20487;-71
2022/03/08 05:29:22;;;;;;;10.52;7.20;;;;;;;-0.45;73.71;102162.63;10455437;28;20187;-72
2022/03/08 05:34:23;;;;;;;9.55;8.60;;;;;;;-0.45;73.36;102159.97;10456330;28;20393;-71
2022/03/08 05:39:23;;;;;;;8.75;6.15;;;;;;;-0.45;73.54;102157.31;10458460;28;20040;-74
2022/03/08 05:44:23;;;;;;;7.57;6.70;;;;;;;-0.59;74.91;102144.88;10457859;28;20037;-72
2022/03/08 05:49:24;;;;;;;10.18;8.02;;;;;;;-0.67;75.65;102146.28;10438305;28;20495;-69
2022/03/08 05:54:24;;;;;;;10.52;6.28;;;;;;;-0.67;75.27;102141.84;10456029;28;20111;-68
2022/03/08 05:59:25;;;;;;;13.68;8.23;;;;;;;-0.74;75.43;102136.00;10455839;28;20040;-70
2022/03/08 06:04:25;;;;;;;12.80;7.60;;;;;;;-0.79;76.10;102138.13;10413179;28;20046;-70
2022/03/08 06:09:25;;;;;;;8.13;7.32;;;;;;;-0.83;76.26;102147.22;10414396;28;20104;-73
2022/03/08 06:14:26;;;;;;;13.23;9.32;;;;;;;-0.88;77.24;102138.66;10414356;28;20400;-71
2022/03/08 06:19:27;;;;;;;9.38;7.57;;;;;;;-0.83;77.45;102152.56;10414725;28;20112;-71
2022/03/08 06:24:27;;;;;;;15.85;8.55;;;;;;;-0.80;77.05;102141.72;10396274;28;20064;-69
2022/03/08 06:29:27;;;;;;;12.32;7.13;;;;;;;-0.63;77.08;102148.66;10414078;28;20109;-70
2022/03/08 06:34:28;;;;;;;9.82;7.75;;;;;;;-0.36;75.15;102143.44;10414253;28;20120;-70
2022/03/08 06:39:29;;;;;;;13.68;9.02;;;;;;;0.05;74.06;102150.59;10420111;28;20029;-70
2022/03/08 06:44:31;;;;;;;9.00;7.50;;;;;;;0.64;71.70;102156.50;10423457;28;20115;-72
2022/03/08 06:49:32;;;;;;;10.32;8.95;;;;;;;1.35;69.12;102162.38;10389714;28;20048;-70
2022/03/08 06:54:36;;;;;;;11.07;7.35;;;;;;;1.98;66.91;102160.56;10403348;28;20385;-71
2022/03/08 06:59:36;;;;;;;12.55;6.13;;;;;;;2.48;64.61;102164.88;10420916;28;20037;-71
2022/03/08 07:04:36;;;;;;;7.20;6.50;;;;;;;2.88;63.20;102151.22;10422697;28;20085;-70
2022/03/08 07:09:38;;;;;;;13.57;8.20;;;;;;;3.18;61.38;102153.34;10420173;28;20037;-70
2022/03/08 07:14:38;;;;;;;8.73;7.30;;;;;;;3.53;60.06;102135.50;10421610;28;20042;-71
2022/03/08 07:19:38;;;;;;;12.90;7.32;;;;;;;3.93;58.45;102133.19;10402014;28;20037;-71
2022/03/08 07:24:39;;;;;;;11.73;6.90;;;;;;;4.06;58.19;102135.72;10419177;28;20046;-71
2022/03/08 07:29:39;;;;;;;12.82;7.78;;;;;;;4.56;57.47;102152.13;10401831;28;20493;-71
2022/03/08 07:34:40;;;;;;;10.57;8.07;;;;;;;4.66;55.35;102150.41;10418171;28;20124;-70
2022/03/08 07:39:40;;;;;;;7.97;5.78;;;;;;;4.88;54.46;102144.94;10419461;28;20038;-71
2022/03/08 07:44:40;;;;;;;7.72;6.95;;;;;;;5.03;54.03;102148.16;10400747;28;20037;-71
2022/03/08 07:49:41;;;;;;;10.18;6.70;;;;;;;5.23;52.09;102143.78;10400351;28;20436;-70
2022/03/08 07:54:41;;;;;;;6.90;6.18;;;;;;;5.46;51.61;102152.53;10418460;28;20125;-72
2022/03/08 07:59:42;;;;;;;10.88;6.10;;;;;;;5.58;51.77;102167.59;10417061;28;20034;-71
2022/03/08 08:04:42;;;;;;;7.97;7.28;;;;;;;5.62;51.18;102151.19;10458319;28;20061;-71
2022/03/08 08:09:43;;;;;;;7.97;6.60;;;;;;;5.97;50.51;102145.41;10457766;28;20029;-72
2022/03/08 08:14:43;;;;;;;11.48;7.13;;;;;;;6.18;49.54;102154.22;10459040;28;20045;-71
2022/03/08 08:19:44;;;;;;;5.13;4.72;;;;;;;6.45;48.79;102163.50;10457683;28;20362;-71
2022/03/08 08:24:44;;;;;;;7.13;6.53;;;;;;;6.84;47.29;102142.81;10441590;28;20032;-71
2022/03/08 08:29:45;;;;;;;9.25;7.35;;;;;;;7.22;46.54;102163.47;10440747;28;20043;-71
2022/03/08 08:34:45;;;;;;;13.80;6.93;;;;;;;7.12;45.66;102146.50;10459000;28;20147;-71
2022/03/08 08:39:46;;;;;;;13.27;6.32;;;;;;;7.49;44.64;102151.06;10457480;28;20033;-71
2022/03/08 08:44:46;;;;;;;8.65;6.45;;;;;;;7.66;44.23;102139.53;10439248;28;20485;-71
2022/03/08 08:49:47;;;;;;;10.68;5.85;;;;;;;7.98;43.24;102122.06;10440764;28;20036;-71
2022/03/08 08:54:48;;;;;;;8.43;7.57;;;;;;;7.95;43.12;102119.66;10456553;28;20037;-71
2022/03/08 08:59:48;;;;;;;8.85;5.80;;;;;;;8.10;42.75;102115.47;10457372;28;20041;-71
2022/03/08 09:04:49;;;;;;;11.60;6.13;;;;;;;8.24;41.65;102115.94;10456793;28;20037;-71
2022/03/08 09:09:49;;;;;;;6.50;5.93;;;;;;;8.45;41.08;102124.59;10439470;28;20136;-71
2022/03/08 09:14:50;;;;;;;7.60;6.15;;;;;;;8.53;41.66;102104.97;10457386;28;20051;-72
2022/03/08 09:19:50;;;;;;;6.85;6.20;;;;;;;8.91;39.93;102111.88;10456166;28;20072;-70
2022/03/08 09:24:51;;;;;;;6.70;5.47;;;;;;;9.21;38.47;102120.53;10457049;28;20119;-70
2022/03/08 09:29:52;;;;;;;6.10;5.55;;;;;;;9.57;38.49;102107.72;10456674;28;20033;-71
2022/03/08 09:34:52;;;;;;;7.47;5.25;;;;;;;9.46;38.31;102116.13;10455538;28;20493;-71
2022/03/08 09:39:52;;;;;;;6.68;6.03;;;;;;;9.44;37.27;102100.03;10455882;28;20029;-70
2022/03/08 09:44:53;;;;;;;6.45;5.10;;;;;;;9.69;37.96;102098.31;10454949;28;20041;-70
2022/03/08 09:49:53;;;;;;;6.22;5.03;;;;;;;10.16;36.58;102095.09;10456270;28;20033;-70
2022/03/08 09:54:54;;;;;;;10.80;6.32;;;;;;;9.92;36.40;102104.00;10437199;28;20128;-72
2022/03/08 09:59:54;;;;;;;8.13;5.55;;;;;;;10.13;36.94;102089.16;10453435;28;20041;-71
2022/03/08 10:05:04;;;;;;;5.38;4.85;;;;;;;10.36;35.79;102086.69;10455075;28;20053;-70
2022/03/08 10:10:05;;;;;;;7.15;6.25;;;;;;;10.66;35.03;102083.34;10454336;28;20124;-70
2022/03/08 10:15:19;;;;;;;7.15;6.10;;;;;;;10.58;34.31;102083.34;10462250;28;20120;-71
2022/03/08 10:20:31;;;;;;;5.38;4.93;;;;;;;11.01;34.86;102073.16;10463701;28;20037;-70
2022/03/08 10:25:31;;;;;;;5.85;4.80;;;;;;;11.08;34.29;102059.78;10462474;28;20032;-70
2022/03/08 10:30:44;;;;;;;5.35;4.90;;;;;;;11.21;33.93;102054.66;10463108;28;20376;-70
2022/03/08 10:35:44;;;;;;;6.38;5.22;;;;;;;10.96;33.68;102042.19;10462711;28;20384;-71
2022/03/08 10:40:45;;;;;;;6.10;5.50;;;;;;;11.37;33.87;102034.78;10462657;28;20069;-71
2022/03/08 10:45:47;;;;;;;6.32;5.40;;;;;;;11.48;32.57;102050.66;10461952;28;20048;-72
2022/03/08 10:50:49;;;;;;;6.47;5.22;;;;;;;11.34;32.69;102016.97;10444977;28;20059;-71
2022/03/08 10:55:50;;;;;;;12.30;5.25;;;;;;;11.41;32.05;102023.38;10462679;28;20035;-72
2022/03/08 11:00:51;;;;;;;5.65;4.47;;;;;;;11.79;30.98;102007.28;10461465;28;20476;-71
2022/03/08 11:05:54;;;;;;;4.05;3.72;;;;;;;11.95;30.62;102016.38;10461216;28;20488;-71
2022/03/08 11:10:55;;;;;;;5.63;4.97;;;;;;;11.80;30.74;101999.97;10461302;28;20033;-70
2022/03/08 11:15:55;;;;;;;4.68;4.28;;;;;;;11.93;30.68;102013.00;10462002;28;20440;-70
2022/03/08 11:20:58;;;;;;;5.50;5.00;;;;;;;11.90;30.79;102013.34;10460751;28;20140;-71
2022/03/08 11:25:58;;;;;;;3.88;3.58;;;;;;;11.74;30.54;101982.56;10459754;28;20392;-70
2022/03/08 11:30:59;;;;;;;4.75;4.25;;;;;;;11.80;29.71;101997.25;10444166;28;20033;-72
2022/03/08 11:36:08;;;;;;;5.28;4.60;;;;;;;11.84;29.79;101977.78;10459570;28;20032;-70
2022/03/08 11:41:09;;;;;;;8.90;5.10;;;;;;;12.15;30.69;101976.03;10443354;28;20040;-70
2022/03/08 11:46:17;;;;;;;7.15;5.53;;;;;;;12.62;29.96;101967.63;10442683;28;20388;-70
2022/03/08 11:51:17;;;;;;;7.07;4.82;;;;;;;12.60;29.67;101972.41;10427732;28;20031;-70
2022/03/08 11:56:17;;;;;;;11.43;5.82;;;;;;;12.38;30.05;101956.97;10459808;28;20033;-70
2022/03/08 12:01:30;;;;;;;4.72;4.32;;;;;;;12.64;29.66;101968.31;10459272;28;20175;-71
2022/03/08 12:06:32;;;;;;;5.28;4.70;;;;;;;12.75;29.64;101965.13;10441580;28;20036;-71
2022/03/08 12:11:34;;;;;;;4.88;4.50;;;;;;;12.69;29.06;101957.69;10457898;28;20051;-72
2022/03/08 12:16:35;;;;;;;5.10;4.65;;;;;;;12.64;29.04;101962.03;10457597;28;20045;-70
2022/03/08 12:21:37;;;;;;;13.32;4.47;;;;;;;12.72;28.69;101943.75;10440538;28;20038;-71
2022/03/08 12:26:57;;;;;;;4.82;4.47;;;;;;;12.53;29.06;101936.13;10424762;28;20388;-70
2022/03/08 12:31:58;;;;;;;5.43;4.97;;;;;;;12.59;29.67;101938.09;10458080;28;20175;-71
2022/03/08 12:37:10;;;;;;;4.88;4.35;;;;;;;12.44;29.69;101920.94;10457571;28;20429;-71
2022/03/08 12:42:21;;;;;;;5.25;4.20;;;;;;;12.40;29.53;101915.03;10439136;28;20101;-71
2022/03/08 12:47:22;;;;;;;10.10;5.40;;;;;;;12.67;29.17;101929.03;10458499;28;20068;-71
2022/03/08 12:52:22;;;;;;;9.55;6.55;;;;;;;12.71;29.40;101924.91;10440603;28;20036;-71
2022/03/08 12:57:23;;;;;;;6.18;4.90;;;;;;;12.76;29.26;101911.59;10458298;28;20465;-70
2022/03/08 13:02:23;;;;;;;10.27;6.10;;;;;;;12.61;29.10;101916.19;10420023;28;20052;-71
2022/03/08 13:07:23;;;;;;;5.97;5.38;;;;;;;12.70;28.62;101926.78;10414634;28;20406;-70
2022/03/08 13:12:33;;;;;;;4.70;4.13;;;;;;;12.63;29.47;101914.97;10415692;28;20137;-71
2022/03/08 13:17:33;;;;;;;23.25;5.05;;;;;;;12.60;28.78;101907.19;10383216;28;20034;-70
2022/03/08 13:22:44;;;;;;;4.90;4.50;;;;;;;12.48;29.77;101895.09;10398770;28;20033;-71
2022/03/08 13:27:52;;;;;;;6.50;5.75;;;;;;;12.42;28.66;101882.25;10399072;28;20029;-71
2022/03/08 13:33:12;;;;;;;6.65;5.35;;;;;;;12.34;30.25;101886.72;10414824;28;20038;-71
2022/03/08 13:38:15;;;;;;;6.22;5.60;;;;;;;12.51;29.29;101909.16;10415005;28;20048;-72
2022/03/08 13:43:16;;;;;;;5.50;4.97;;;;;;;12.30;29.09;101895.44;10397078;28;20190;-71
2022/03/08 13:48:30;;;;;;;5.18;4.53;;;;;;;12.12;30.61;101876.75;10397331;28;20036;-71
2022/03/08 13:53:30;;;;;;;5.95;5.45;;;;;;;12.20;29.95;101895.72;10415462;28;20043;-71
2022/03/08 13:58:32;;;;;;;7.38;5.88;;;;;;;12.18;30.40;101881.47;10412392;28;20124;-71
2022/03/08 14:03:40;;;;;;;8.85;5.90;;;;;;;12.29;30.38;101889.19;10441794;28;20148;-71
2022/03/08 14:08:48;;;;;;;5.88;4.88;;;;;;;12.12;30.84;101884.06;10421933;28;20033;-71
2022/03/08 14:13:59;;;;;;;5.72;4.15;;;;;;;12.00;30.10;101872.81;10438031;28;20120;-70
2022/03/08 14:19:00;;;;;;;7.95;6.10;;;;;;;11.77;30.96;101889.94;10455852;28;20044;-73
2022/03/08 14:24:10;;;;;;;6.95;6.18;;;;;;;11.75;30.48;101883.84;10455355;28;20041;-71
2022/03/08 14:29:11;;;;;;;10.93;5.25;;;;;;;11.67;31.13;101883.03;10455146;28;20040;-71
2022/03/08 14:34:31;;;;;;;6.38;5.57;;;;;;;11.69;31.42;101889.16;10436911;28;20033;-70
2022/03/08 14:39:33;;;;;;;6.90;5.13;;;;;;;11.65;31.70;101894.09;10438849;28;20453;-71
2022/03/08 14:44:50;;;;;;;5.43;4.82;;;;;;;11.44;31.03;101893.88;10455590;28;20065;-71
2022/03/08 14:49:52;;;;;;;6.30;5.38;;;;;;;11.41;31.54;101874.22;10438160;28;20075;-71
2022/03/08 14:54:53;;;;;;;5.80;5.22;;;;;;;11.56;31.93;101879.72;10452923;28;20040;-71
2022/03/08 14:59:57;;;;;;;7.35;6.63;;;;;;;11.54;31.55;101873.63;10457498;28;20052;-71
2022/03/08 15:04:58;;;;;;;5.25;4.80;;;;;;;11.39;31.73;101870.88;10428204;28;20055;-71
2022/03/08 15:09:58;;;;;;;16.10;7.35;;;;;;;11.36;32.54;101862.25;10445311;28;20120;-71
2022/03/08 15:14:58;;;;;;;7.75;5.25;;;;;;;11.27;32.95;101863.31;10461493;28;20453;-72
2022/03/08 15:20:00;;;;;;;14.63;5.47;;;;;;;10.93;32.93;101865.34;10443311;28;20119;-72
2022/03/08 15:25:01;;;;;;;7.18;5.28;;;;;;;10.44;34.55;101857.38;10445718;28;20037;-72
2022/03/08 15:30:02;;;;;;;7.28;5.55;;;;;;;10.25;34.57;101860.44;10445648;28;20037;-71
2022/03/08 15:35:04;;;;;;;8.43;5.82;;;;;;;9.89;35.36;101868.06;10460360;28;20483;-72
2022/03/08 15:40:06;;;;;;;7.43;5.32;;;;;;;9.71;36.74;101855.56;10459848;28;20033;-72
2022/03/08 15:45:07;;;;;;;9.88;5.63;;;;;;;9.66;36.05;101859.78;10459811;28;20033;-71
2022/03/08 15:50:09;;;;;;;7.70;6.80;;;;;;;9.62;36.94;101853.88;10460202;28;20492;-71
2022/03/08 15:55:11;;;;;;;8.88;6.95;;;;;;;9.55;37.21;101858.28;10442221;28;20086;-71
2022/03/08 16:00:12;;;;;;;5.80;5.30;;;;;;;9.41;37.64;101857.06;10443058;28;20055;-71
2022/03/08 16:05:13;;;;;;;9.77;5.15;;;;;;;9.40;37.42;101860.78;10460123;28;20126;-71
2022/03/08 16:10:13;;;;;;;6.18;5.57;;;;;;;9.28;38.74;101852.16;10458842;28;20111;-71
2022/03/08 16:15:13;;;;;;;8.73;5.57;;;;;;;9.23;39.20;101854.50;10457641;28;20039;-71
2022/03/08 16:20:14;;;;;;;6.65;6.05;;;;;;;9.16;39.45;101852.63;10457763;28;20120;-72
2022/03/08 16:25:15;;;;;;;6.32;5.22;;;;;;;9.02;39.82;101854.09;10458095;28;20048;-72
2022/03/08 16:30:15;;;;;;;7.85;7.07;;;;;;;9.00;40.25;101875.88;10458305;28;20381;-71
2022/03/08 16:35:15;;;;;;;7.18;6.50;;;;;;;8.81;40.59;101866.19;10457149;28;20068;-72
2022/03/08 16:40:16;;;;;;;17.15;7.25;;;;;;;8.69;39.70;101862.06;10438036;28;20060;-72
2022/03/08 16:45:16;;;;;;;10.27;6.15;;;;;;;8.60;40.44;101855.78;10438957;28;20052;-71
2022/03/08 16:50:17;;;;;;;7.07;5.75;;;;;;;8.43;41.56;101863.97;10457530;28;20048;-71
2022/03/08 16:55:17;;;;;;;8.65;6.68;;;;;;;8.31;42.34;101866.88;10440574;28;20033;-72
2022/03/08 17:00:18;;;;;;;9.40;5.78;;;;;;;8.19;42.60;101872.69;10456739;28;20037;-70
2022/03/08 17:05:18;;;;;;;7.00;6.38;;;;;;;8.07;43.08;101877.50;10457631;28;20068;-71
2022/03/08 17:10:19;;;;;;;8.07;6.30;;;;;;;7.99;42.41;101893.63;10438813;28;20052;-71
2022/03/08 17:15:19;;;;;;;6.78;5.60;;;;;;;7.91;43.26;101894.41;10456274;28;20033;-71
2022/03/08 17:20:20;;;;;;;12.15;6.38;;;;;;;7.80;43.82;101892.78;10455576;28;20033;-72
2022/03/08 17:25:20;;;;;;;8.25;6.25;;;;;;;7.65;43.90;101905.97;10456507;28;20041;-72
2022/03/08 17:30:20;;;;;;;11.13;5.82;;;;;;;7.42;44.70;101910.09;10456647;28;20037;-72
2022/03/08 17:35:21;;;;;;;9.18;6.45;;;;;;;7.32;45.14;101920.09;10456528;28;20580;-72
2022/03/08 17:40:21;;;;;;;9.38;6.80;;;;;;;7.20;45.02;101903.28;10458275;28;20029;-72
2022/03/08 17:45:22;;;;;;;8.77;7.05;;;;;;;7.10;45.45;101911.44;10458336;28;20560;-72
2022/03/08 17:50:22;;;;;;;8.05;6.75;;;;;;;7.02;45.70;101919.44;10454541;28;20112;-71
2022/03/08 17:55:23;;;;;;;11.65;7.25;;;;;;;6.87;45.72;101921.75;10455667;28;20037;-72
2022/03/08 18:00:24;;;;;;;9.05;7.22;;;;;;;6.85;45.30;101939.88;10456825;28;20057;-71
2022/03/08 18:05:24;;;;;;;9.45;6.30;;;;;;;6.82;45.62;101942.88;10456268;28;20376;-71
2022/03/08 18:10:25;;;;;;;5.85;5.03;;;;;;;6.80;45.64;101941.34;10454664;28;20029;-72
2022/03/08 18:15:25;;;;;;;7.18;6.22;;;;;;;6.78;45.84;101951.41;10456738;28;20472;-72
2022/03/08 18:20:26;;;;;;;7.47;6.72;;;;;;;6.59;46.46;101955.84;10438801;28;20036;-71
2022/03/08 18:25:26;;;;;;;12.95;7.63;;;;;;;6.58;45.74;101956.00;10454958;28;20124;-72
2022/03/08 18:30:27;;;;;;;6.72;6.07;;;;;;;6.47;46.43;101955.16;10455883;28;20365;-71
2022/03/08 18:35:27;;;;;;;9.52;6.72;;;;;;;6.35;46.86;101960.84;10461387;28;20116;-71
2022/03/08 18:40:27;;;;;;;18.05;6.50;;;;;;;6.31;46.76;101964.81;10462307;28;20037;-71
2022/03/08 18:45:28;;;;;;;8.65;7.15;;;;;;;6.19;46.89;101959.59;10462968;28;20037;-71
2022/03/08 18:50:28;;;;;;;6.50;5.90;;;;;;;6.21;46.66;101970.22;10462862;28;20033;-71
2022/03/08 18:55:29;;;;;;;7.38;6.63;;;;;;;6.17;46.33;101960.75;10462691;28;20044;-72
2022/03/08 19:00:30;;;;;;;11.05;6.97;;;;;;;6.16;46.17;101962.59;10441945;28;20077;-71
2022/03/08 19:05:30;;;;;;;7.35;5.85;;;;;;;6.01;46.90;101967.53;10463179;28;20109;-72
2022/03/08 19:10:31;;;;;;;10.38;7.20;;;;;;;5.96;46.55;101977.00;10461759;28;20033;-72
2022/03/08 19:15:31;;;;;;;8.63;5.78;;;;;;;5.99;46.15;101966.81;10461830;28;20468;-72
2022/03/08 19:20:31;;;;;;;9.70;6.35;;;;;;;6.09;45.38;101969.50;10460991;28;20025;-71
2022/03/08 19:25:32;;;;;;;8.65;6.70;;;;;;;6.09;45.08;101968.66;10461771;28;20408;-72
2022/03/08 19:30:32;;;;;;;13.63;6.75;;;;;;;6.16;44.93;101959.91;10443570;28;20033;-71
2022/03/08 19:35:34;;;;;;;7.53;6.38;;;;;;;6.12;45.03;101963.00;10443099;28;20083;-71
2022/03/08 19:40:36;;;;;;;13.02;7.28;;;;;;;6.07;44.90;101965.28;10461298;28;20075;-72
2022/03/08 19:45:36;;;;;;;12.00;10.63;;;;;;;6.08;44.70;101969.66;10459778;28;20361;-73
2022/03/08 19:50:37;;;;;;;13.95;10.77;;;;;;;6.13;44.93;101964.72;10460947;28;20109;-72
2022/03/08 19:55:37;;;;;;;9.85;8.75;;;;;;;6.04;45.00;101961.03;10462829;28;20037;-71
2022/03/08 20:00:37;;;;;;;9.50;8.60;;;;;;;5.91;45.51;101963.13;10462304;28;20053;-72
2022/03/08 20:05:38;;;;;;;9.52;8.05;;;;;;;5.90;45.55;101969.47;10425036;28;20489;-72
2022/03/08 20:10:38;;;;;;;8.23;7.00;;;;;;;5.79;46.02;101968.63;10418057;28;20085;-72
2022/03/08 20:15:39;;;;;;;9.20;7.18;;;;;;;5.65;46.50;101958.28;10400383;28;20045;-71
2022/03/08 20:20:39;;;;;;;15.48;7.93;;;;;;;5.61;46.80;101954.16;10418397;28;20033;-73
2022/03/08 20:25:40;;;;;;;9.38;8.35;;;;;;;5.45;46.78;101951.16;10401238;28;20033;-70
2022/03/08 20:30:40;;;;;;;23.38;8.60;;;;;;;5.39;47.53;101967.81;10401469;28;20069;-72
2022/03/08 20:35:41;;;;;;;10.15;6.50;;;;;;;5.34;47.55;101968.25;10417278;28;20037;-71
2022/03/08 20:40:41;;;;;;;14.75;7.95;;;;;;;5.20;47.60;101958.75;10417540;28;20022;-73
2022/03/08 20:45:42;;;;;;;13.48;8.75;;;;;;;5.00;47.58;101968.53;10415981;28;20412;-72
2022/03/08 20:50:42;;;;;;;15.05;8.30;;;;;;;4.79;48.71;101968.59;10417708;28;20170;-73
2022/03/08 20:55:43;;;;;;;11.32;8.02;;;;;;;4.78;48.26;101971.41;10400443;28;20361;-72
2022/03/08 21:00:43;;;;;;;13.25;9.45;;;;;;;4.69;48.21;101982.94;10400111;28;20029;-73
2022/03/08 21:05:44;;;;;;;11.75;8.23;;;;;;;4.62;49.74;101986.16;10435695;28;20482;-72
2022/03/08 21:10:44;;;;;;;10.95;7.80;;;;;;;4.48;49.92;101982.97;10457718;28;20460;-72
2022/03/08 21:15:44;;;;;;;15.70;10.20;;;;;;;4.34;50.26;101986.81;10440154;28;20076;-71
2022/03/08 21:20:45;;;;;;;16.95;10.60;;;;;;;4.23;50.17;101994.91;10456676;28;20028;-72
2022/03/08 21:25:45;;;;;;;13.40;8.63;;;;;;;4.13;49.88;102010.94;10457007;28;20060;-74
2022/03/08 21:30:46;;;;;;;20.23;10.98;;;;;;;4.00;49.57;102003.06;10457586;28;20029;-73
2022/03/08 21:35:46;;;;;;;14.98;9.27;;;;;;;3.87;49.70;102003.22;10456862;28;20064;-73
2022/03/08 21:40:47;;;;;;;13.57;9.52;;;;;;;3.80;51.33;102011.88;10456721;28;20025;-73
2022/03/08 21:45:47;;;;;;;13.95;9.27;;;;;;;3.70;50.48;102017.13;10458081;28;20367;-73
2022/03/08 21:50:48;;;;;;;13.68;9.73;;;;;;;3.46;50.89;102015.47;10455354;28;20360;-72
2022/03/08 21:55:48;;;;;;;16.67;8.90;;;;;;;3.39;52.01;102002.72;10437915;28;20056;-72
2022/03/08 22:00:49;;;;;;;15.15;10.02;;;;;;;3.27;50.96;102020.63;10439538;28;20025;-72
2022/03/08 22:05:50;;;;;;;26.23;10.48;;;;;;;3.03;51.33;102043.00;10457224;28;20049;-73
2022/03/08 22:10:51;;;;;;;15.95;10.25;;;;;;;3.08;54.16;102037.28;10463345;28;20068;-72
2022/03/08 22:15:52;;;;;;;10.27;8.25;;;;;;;3.12;54.25;102037.88;10450536;28;20033;-73
2022/03/08 22:20:52;;;;;;;12.43;8.98;;;;;;;3.08;54.25;102039.09;10469820;28;20412;-72
2022/03/08 22:25:53;;;;;;;16.77;10.88;;;;;;;2.83;53.02;102043.69;10464354;28;20033;-72
2022/03/08 22:30:53;;;;;;;16.75;12.05;;;;;;;2.75;54.46;102035.44;10465345;28;20512;-72
2022/03/08 22:35:53;;;;;;;14.88;11.13;;;;;;;2.76;55.15;102045.16;10463954;28;20349;-73
2022/03/08 22:40:54;;;;;;;11.45;9.93;;;;;;;2.64;55.50;102048.75;10463983;28;20117;-73
2022/03/08 22:45:54;;;;;;;19.58;9.80;;;;;;;2.61;55.82;102054.34;10446025;28;20461;-72
2022/03/08 22:56:14;;;;;;;12.02;8.30;;;;;;;2.53;56.06;102057.63;10462702;28;20032;-72
2022/03/08 23:01:14;;;;;;;14.93;10.75;;;;;;;2.53;55.45;102063.81;10462545;28;20029;-72
2022/03/08 23:06:14;;;;;;;19.40;10.73;;;;;;;2.46;55.34;102061.72;10409135;28;20405;-71
2022/03/08 23:11:15;;;;;;;12.35;10.65;;;;;;;2.41;56.18;102059.38;10421152;28;20136;-72
2022/03/08 23:16:18;;;;;;;40.17;11.23;;;;;;;2.36;55.60;102066.03;10404303;28;20425;-73